sensor_id;sensor_type;location;lat;lon;timestamp;P1;durP1;ratioP1;P2;durP2;ratioP2
22939;SDS011;11636;52.086;5.090;2023-01-26T00:01:11;83.97;;;35.90;;
22939;SDS011;11636;52.086;5.090;2023-01-26T00:03:42;86.00;;;36.17;;
22939;SDS011;11636;52.086;5.090;2023-01-26T00:06:16;100.90;;;41.83;;
22939;SDS011;11636;52.086;5.090;2023-01-26T00:08:45;93.97;;;39.63;;
22939;SDS011;11636;52.086;5.090;2023-01-26T00:11:21;89.60;;;38.80;;
22939;SDS011;11636;52.086;5.090;2023-01-26T00:13:52;96.75;;;41.35;;
22939;SDS011;11636;52.086;5.090;2023-01-26T00:16:27;82.75;;;36.00;;
22939;SDS011;11636;52.086;5.090;2023-01-26T00:18:54;92.38;;;39.63;;
22939;SDS011;11636;52.086;5.090;2023-01-26T00:21:27;82.07;;;36.28;;
22939;SDS011;11636;52.086;5.090;2023-01-26T00:23:54;81.40;;;36.17;;
22939;SDS011;11636;52.086;5.090;2023-01-26T00:26:30;85.75;;;36.83;;
22939;SDS011;11636;52.086;5.090;2023-01-26T00:28:58;82.97;;;35.55;;
22939;SDS011;11636;52.086;5.090;2023-01-26T00:31:31;89.15;;;38.38;;
22939;SDS011;11636;52.086;5.090;2023-01-26T00:33:58;86.00;;;36.95;;
22939;SDS011;11636;52.086;5.090;2023-01-26T00:36:31;83.03;;;37.05;;
22939;SDS011;11636;52.086;5.090;2023-01-26T00:39:05;72.88;;;33.25;;
22939;SDS011;11636;52.086;5.090;2023-01-26T00:41:38;82.03;;;36.08;;
22939;SDS011;11636;52.086;5.090;2023-01-26T00:44:31;94.70;;;41.45;;
22939;SDS011;11636;52.086;5.090;2023-01-26T00:46:58;79.07;;;34.40;;
22939;SDS011;11636;52.086;5.090;2023-01-26T00:49:31;82.10;;;36.13;;
22939;SDS011;11636;52.086;5.090;2023-01-26T00:51:59;83.53;;;36.15;;
22939;SDS011;11636;52.086;5.090;2023-01-26T00:54:26;77.82;;;34.67;;
22939;SDS011;11636;52.086;5.090;2023-01-26T00:57:04;72.80;;;33.50;;
22939;SDS011;11636;52.086;5.090;2023-01-26T00:59:31;70.82;;;31.08;;
22939;SDS011;11636;52.086;5.090;2023-01-26T01:02:06;64.15;;;29.50;;
22939;SDS011;11636;52.086;5.090;2023-01-26T01:04:40;68.38;;;30.88;;
22939;SDS011;11636;52.086;5.090;2023-01-26T01:07:06;72.35;;;31.45;;
22939;SDS011;11636;52.086;5.090;2023-01-26T01:09:33;63.72;;;29.88;;
22939;SDS011;11636;52.086;5.090;2023-01-26T01:12:06;69.35;;;31.00;;
22939;SDS011;11636;52.086;5.090;2023-01-26T01:14:33;63.45;;;28.60;;
22939;SDS011;11636;52.086;5.090;2023-01-26T01:17:07;56.75;;;26.50;;
22939;SDS011;11636;52.086;5.090;2023-01-26T01:19:40;67.70;;;31.58;;
22939;SDS011;11636;52.086;5.090;2023-01-26T01:22:14;64.03;;;29.33;;
22939;SDS011;11636;52.086;5.090;2023-01-26T01:24:48;69.78;;;30.48;;
22939;SDS011;11636;52.086;5.090;2023-01-26T01:27:26;69.30;;;32.05;;
22939;SDS011;11636;52.086;5.090;2023-01-26T01:29:53;59.60;;;28.08;;
22939;SDS011;11636;52.086;5.090;2023-01-26T01:32:27;55.80;;;26.38;;
22939;SDS011;11636;52.086;5.090;2023-01-26T01:34:59;55.20;;;26.05;;
22939;SDS011;11636;52.086;5.090;2023-01-26T01:37:33;65.28;;;29.08;;
22939;SDS011;11636;52.086;5.090;2023-01-26T01:40:02;62.83;;;29.77;;
22939;SDS011;11636;52.086;5.090;2023-01-26T01:42:36;55.72;;;26.38;;
22939;SDS011;11636;52.086;5.090;2023-01-26T01:47:52;76.18;;;34.33;;
22939;SDS011;11636;52.086;5.090;2023-01-26T01:50:36;69.80;;;31.60;;
22939;SDS011;11636;52.086;5.090;2023-01-26T01:53:16;64.13;;;29.40;;
22939;SDS011;11636;52.086;5.090;2023-01-26T01:55:57;67.55;;;31.83;;
22939;SDS011;11636;52.086;5.090;2023-01-26T01:58:27;69.60;;;31.45;;
22939;SDS011;11636;52.086;5.090;2023-01-26T02:01:03;67.70;;;30.38;;
22939;SDS011;11636;52.086;5.090;2023-01-26T02:03:34;58.80;;;28.23;;
22939;SDS011;11636;52.086;5.090;2023-01-26T02:06:17;67.35;;;30.45;;
22939;SDS011;11636;52.086;5.090;2023-01-26T02:09:00;60.77;;;28.53;;
22939;SDS011;11636;52.086;5.090;2023-01-26T02:11:39;59.65;;;26.65;;
22939;SDS011;11636;52.086;5.090;2023-01-26T02:14:16;52.30;;;26.58;;
22939;SDS011;11636;52.086;5.090;2023-01-26T02:16:50;65.15;;;30.23;;
22939;SDS011;11636;52.086;5.090;2023-01-26T02:22:19;56.25;;;26.20;;
22939;SDS011;11636;52.086;5.090;2023-01-26T02:25:01;53.17;;;25.27;;
22939;SDS011;11636;52.086;5.090;2023-01-26T02:27:43;48.78;;;23.27;;
22939;SDS011;11636;52.086;5.090;2023-01-26T02:30:18;41.50;;;19.90;;
22939;SDS011;11636;52.086;5.090;2023-01-26T02:32:54;55.00;;;26.40;;
22939;SDS011;11636;52.086;5.090;2023-01-26T02:35:21;57.47;;;26.65;;
22939;SDS011;11636;52.086;5.090;2023-01-26T02:37:56;57.80;;;25.92;;
22939;SDS011;11636;52.086;5.090;2023-01-26T02:43:11;51.30;;;23.27;;
22939;SDS011;11636;52.086;5.090;2023-01-26T02:45:45;46.70;;;22.20;;
22939;SDS011;11636;52.086;5.090;2023-01-26T02:48:19;52.30;;;24.98;;
22939;SDS011;11636;52.086;5.090;2023-01-26T02:51:15;64.45;;;29.63;;
22939;SDS011;11636;52.086;5.090;2023-01-26T02:53:49;56.72;;;27.35;;
22939;SDS011;11636;52.086;5.090;2023-01-26T02:56:15;63.08;;;29.42;;
22939;SDS011;11636;52.086;5.090;2023-01-26T02:58:49;56.47;;;26.23;;
22939;SDS011;11636;52.086;5.090;2023-01-26T03:01:29;67.10;;;29.35;;
22939;SDS011;11636;52.086;5.090;2023-01-26T03:03:57;69.32;;;31.63;;
22939;SDS011;11636;52.086;5.090;2023-01-26T03:06:24;69.68;;;31.80;;
22939;SDS011;11636;52.086;5.090;2023-01-26T03:08:58;67.47;;;32.45;;
22939;SDS011;11636;52.086;5.090;2023-01-26T03:11:25;77.82;;;33.83;;
22939;SDS011;11636;52.086;5.090;2023-01-26T03:14:14;66.38;;;31.00;;
22939;SDS011;11636;52.086;5.090;2023-01-26T03:16:41;64.45;;;29.42;;
22939;SDS011;11636;52.086;5.090;2023-01-26T03:19:09;67.88;;;29.08;;
22939;SDS011;11636;52.086;5.090;2023-01-26T03:22:04;52.88;;;25.38;;
22939;SDS011;11636;52.086;5.090;2023-01-26T03:24:49;58.08;;;25.30;;
22939;SDS011;11636;52.086;5.090;2023-01-26T03:27:45;55.75;;;26.17;;
22939;SDS011;11636;52.086;5.090;2023-01-26T03:30:15;49.22;;;23.77;;
22939;SDS011;11636;52.086;5.090;2023-01-26T03:32:50;51.97;;;23.40;;
22939;SDS011;11636;52.086;5.090;2023-01-26T03:35:23;57.33;;;25.65;;
22939;SDS011;11636;52.086;5.090;2023-01-26T03:38:02;58.58;;;27.40;;
22939;SDS011;11636;52.086;5.090;2023-01-26T03:40:35;75.43;;;31.23;;
22939;SDS011;11636;52.086;5.090;2023-01-26T03:43:20;66.43;;;30.30;;
22939;SDS011;11636;52.086;5.090;2023-01-26T03:46:12;55.08;;;25.95;;
22939;SDS011;11636;52.086;5.090;2023-01-26T03:49:04;56.28;;;26.05;;
22939;SDS011;11636;52.086;5.090;2023-01-26T03:51:56;47.80;;;23.75;;
22939;SDS011;11636;52.086;5.090;2023-01-26T03:54:46;47.35;;;22.95;;
22939;SDS011;11636;52.086;5.090;2023-01-26T03:57:42;40.95;;;19.35;;
22939;SDS011;11636;52.086;5.090;2023-01-26T04:00:10;38.45;;;19.10;;
22939;SDS011;11636;52.086;5.090;2023-01-26T04:02:47;46.15;;;21.80;;
22939;SDS011;11636;52.086;5.090;2023-01-26T04:05:32;34.13;;;17.60;;
22939;SDS011;11636;52.086;5.090;2023-01-26T04:08:42;33.10;;;16.88;;
22939;SDS011;11636;52.086;5.090;2023-01-26T04:11:10;38.15;;;18.75;;
22939;SDS011;11636;52.086;5.090;2023-01-26T04:13:43;34.92;;;16.73;;
22939;SDS011;11636;52.086;5.090;2023-01-26T04:16:28;41.55;;;19.95;;
22939;SDS011;11636;52.086;5.090;2023-01-26T04:19:20;60.72;;;26.75;;
22939;SDS011;11636;52.086;5.090;2023-01-26T04:22:14;48.03;;;21.65;;
22939;SDS011;11636;52.086;5.090;2023-01-26T04:24:41;44.65;;;21.33;;
22939;SDS011;11636;52.086;5.090;2023-01-26T04:27:15;43.55;;;20.80;;
22939;SDS011;11636;52.086;5.090;2023-01-26T04:29:48;45.40;;;20.85;;
22939;SDS011;11636;52.086;5.090;2023-01-26T04:32:21;46.55;;;22.75;;
22939;SDS011;11636;52.086;5.090;2023-01-26T04:34:48;42.85;;;19.90;;
22939;SDS011;11636;52.086;5.090;2023-01-26T04:37:22;46.17;;;21.50;;
22939;SDS011;11636;52.086;5.090;2023-01-26T04:39:49;46.70;;;22.23;;
22939;SDS011;11636;52.086;5.090;2023-01-26T04:42:22;45.22;;;21.50;;
22939;SDS011;11636;52.086;5.090;2023-01-26T04:44:56;40.58;;;19.33;;
22939;SDS011;11636;52.086;5.090;2023-01-26T04:47:29;44.28;;;20.83;;
22939;SDS011;11636;52.086;5.090;2023-01-26T04:49:55;48.88;;;21.98;;
22939;SDS011;11636;52.086;5.090;2023-01-26T04:52:29;36.58;;;17.58;;
22939;SDS011;11636;52.086;5.090;2023-01-26T04:54:56;43.30;;;20.70;;
22939;SDS011;11636;52.086;5.090;2023-01-26T04:57:33;42.30;;;19.52;;
22939;SDS011;11636;52.086;5.090;2023-01-26T05:00:07;36.90;;;17.45;;
22939;SDS011;11636;52.086;5.090;2023-01-26T05:02:42;34.03;;;17.13;;
22939;SDS011;11636;52.086;5.090;2023-01-26T05:05:11;42.72;;;19.20;;
22939;SDS011;11636;52.086;5.090;2023-01-26T05:07:44;39.35;;;17.85;;
22939;SDS011;11636;52.086;5.090;2023-01-26T05:10:11;41.95;;;18.90;;
22939;SDS011;11636;52.086;5.090;2023-01-26T05:12:41;49.65;;;23.33;;
22939;SDS011;11636;52.086;5.090;2023-01-26T05:15:14;35.63;;;17.30;;
22939;SDS011;11636;52.086;5.090;2023-01-26T05:17:47;28.63;;;14.10;;
22939;SDS011;11636;52.086;5.090;2023-01-26T05:20:14;34.67;;;16.75;;
22939;SDS011;11636;52.086;5.090;2023-01-26T05:22:41;34.55;;;16.63;;
22939;SDS011;11636;52.086;5.090;2023-01-26T05:25:15;33.33;;;16.23;;
22939;SDS011;11636;52.086;5.090;2023-01-26T05:27:42;25.95;;;12.63;;
22939;SDS011;11636;52.086;5.090;2023-01-26T05:30:10;35.38;;;15.85;;
22939;SDS011;11636;52.086;5.090;2023-01-26T05:32:44;31.50;;;16.08;;
22939;SDS011;11636;52.086;5.090;2023-01-26T05:35:11;31.50;;;15.52;;
22939;SDS011;11636;52.086;5.090;2023-01-26T05:37:38;35.45;;;17.95;;
22939;SDS011;11636;52.086;5.090;2023-01-26T05:40:14;36.17;;;18.30;;
22939;SDS011;11636;52.086;5.090;2023-01-26T05:42:41;33.17;;;16.50;;
22939;SDS011;11636;52.086;5.090;2023-01-26T05:45:09;39.50;;;18.65;;
22939;SDS011;11636;52.086;5.090;2023-01-26T05:47:43;37.13;;;18.70;;
22939;SDS011;11636;52.086;5.090;2023-01-26T05:50:11;50.38;;;22.73;;
22939;SDS011;11636;52.086;5.090;2023-01-26T05:52:39;53.97;;;24.60;;
22939;SDS011;11636;52.086;5.090;2023-01-26T05:55:13;57.42;;;26.00;;
22939;SDS011;11636;52.086;5.090;2023-01-26T05:57:40;55.92;;;26.08;;
22939;SDS011;11636;52.086;5.090;2023-01-26T06:00:08;66.43;;;30.35;;
22939;SDS011;11636;52.086;5.090;2023-01-26T06:02:42;60.47;;;27.20;;
22939;SDS011;11636;52.086;5.090;2023-01-26T06:05:12;54.63;;;25.90;;
22939;SDS011;11636;52.086;5.090;2023-01-26T06:07:51;59.45;;;26.05;;
22939;SDS011;11636;52.086;5.090;2023-01-26T06:10:18;62.08;;;28.55;;
22939;SDS011;11636;52.086;5.090;2023-01-26T06:12:52;69.60;;;30.30;;
22939;SDS011;11636;52.086;5.090;2023-01-26T06:15:28;62.72;;;28.52;;
22939;SDS011;11636;52.086;5.090;2023-01-26T06:17:55;63.50;;;29.05;;
22939;SDS011;11636;52.086;5.090;2023-01-26T06:20:22;55.75;;;25.17;;
22939;SDS011;11636;52.086;5.090;2023-01-26T06:22:58;55.65;;;25.42;;
22939;SDS011;11636;52.086;5.090;2023-01-26T06:25:25;53.47;;;25.08;;
22939;SDS011;11636;52.086;5.090;2023-01-26T06:27:55;57.65;;;26.52;;
22939;SDS011;11636;52.086;5.090;2023-01-26T06:30:31;52.00;;;25.13;;
22939;SDS011;11636;52.086;5.090;2023-01-26T06:33:00;55.72;;;25.60;;
22939;SDS011;11636;52.086;5.090;2023-01-26T06:35:26;49.53;;;22.42;;
22939;SDS011;11636;52.086;5.090;2023-01-26T06:38:00;49.13;;;23.88;;
22939;SDS011;11636;52.086;5.090;2023-01-26T06:40:27;48.42;;;23.17;;
22939;SDS011;11636;52.086;5.090;2023-01-26T06:43:05;40.55;;;20.52;;
22939;SDS011;11636;52.086;5.090;2023-01-26T06:45:32;36.60;;;18.02;;
22939;SDS011;11636;52.086;5.090;2023-01-26T06:48:05;45.58;;;21.13;;
22939;SDS011;11636;52.086;5.090;2023-01-26T06:50:32;43.22;;;20.98;;
22939;SDS011;11636;52.086;5.090;2023-01-26T06:53:02;49.08;;;21.70;;
22939;SDS011;11636;52.086;5.090;2023-01-26T06:55:47;48.40;;;22.58;;
22939;SDS011;11636;52.086;5.090;2023-01-26T06:58:14;48.75;;;22.85;;
22939;SDS011;11636;52.086;5.090;2023-01-26T07:00:47;53.25;;;24.80;;
22939;SDS011;11636;52.086;5.090;2023-01-26T07:03:21;56.78;;;25.92;;
22939;SDS011;11636;52.086;5.090;2023-01-26T07:05:55;52.40;;;23.60;;
22939;SDS011;11636;52.086;5.090;2023-01-26T07:08:29;52.08;;;24.50;;
22939;SDS011;11636;52.086;5.090;2023-01-26T07:10:56;47.88;;;22.35;;
22939;SDS011;11636;52.086;5.090;2023-01-26T07:13:25;58.85;;;24.52;;
22939;SDS011;11636;52.086;5.090;2023-01-26T07:16:05;43.50;;;21.52;;
22939;SDS011;11636;52.086;5.090;2023-01-26T07:18:34;43.30;;;21.50;;
22939;SDS011;11636;52.086;5.090;2023-01-26T07:21:10;43.33;;;20.15;;
22939;SDS011;11636;52.086;5.090;2023-01-26T07:23:39;46.75;;;21.80;;
22939;SDS011;11636;52.086;5.090;2023-01-26T07:26:06;34.88;;;17.40;;
22939;SDS011;11636;52.086;5.090;2023-01-26T07:28:39;36.83;;;18.15;;
22939;SDS011;11636;52.086;5.090;2023-01-26T07:31:07;31.67;;;15.45;;
22939;SDS011;11636;52.086;5.090;2023-01-26T07:33:34;40.88;;;20.10;;
22939;SDS011;11636;52.086;5.090;2023-01-26T07:36:07;42.35;;;20.08;;
22939;SDS011;11636;52.086;5.090;2023-01-26T07:38:42;43.05;;;19.90;;
22939;SDS011;11636;52.086;5.090;2023-01-26T07:41:10;46.60;;;21.77;;
22939;SDS011;11636;52.086;5.090;2023-01-26T07:43:45;63.72;;;27.05;;
22939;SDS011;11636;52.086;5.090;2023-01-26T07:46:18;59.28;;;25.90;;
22939;SDS011;11636;52.086;5.090;2023-01-26T07:48:55;48.90;;;22.38;;
22939;SDS011;11636;52.086;5.090;2023-01-26T07:51:22;63.08;;;28.27;;
22939;SDS011;11636;52.086;5.090;2023-01-26T07:53:49;61.65;;;27.55;;
22939;SDS011;11636;52.086;5.090;2023-01-26T07:56:22;74.47;;;31.65;;
22939;SDS011;11636;52.086;5.090;2023-01-26T07:58:50;55.75;;;24.80;;
22939;SDS011;11636;52.086;5.090;2023-01-26T08:01:18;57.67;;;24.50;;
22939;SDS011;11636;52.086;5.090;2023-01-26T08:03:52;50.17;;;23.42;;
22939;SDS011;11636;52.086;5.090;2023-01-26T08:06:19;48.83;;;21.20;;
22939;SDS011;11636;52.086;5.090;2023-01-26T08:08:51;46.40;;;21.23;;
22939;SDS011;11636;52.086;5.090;2023-01-26T08:11:34;58.55;;;26.42;;
22939;SDS011;11636;52.086;5.090;2023-01-26T08:14:01;50.10;;;22.08;;
22939;SDS011;11636;52.086;5.090;2023-01-26T08:16:34;50.75;;;21.45;;
22939;SDS011;11636;52.086;5.090;2023-01-26T08:19:02;60.85;;;22.52;;
22939;SDS011;11636;52.086;5.090;2023-01-26T08:21:29;45.20;;;19.63;;
22939;SDS011;11636;52.086;5.090;2023-01-26T08:24:02;44.05;;;18.60;;
22939;SDS011;11636;52.086;5.090;2023-01-26T08:26:29;35.10;;;16.85;;
22939;SDS011;11636;52.086;5.090;2023-01-26T08:28:58;33.20;;;15.52;;
22939;SDS011;11636;52.086;5.090;2023-01-26T08:31:31;34.88;;;14.73;;
22939;SDS011;11636;52.086;5.090;2023-01-26T08:34:05;36.25;;;15.15;;
22939;SDS011;11636;52.086;5.090;2023-01-26T08:36:32;48.95;;;16.98;;
22939;SDS011;11636;52.086;5.090;2023-01-26T08:39:12;40.42;;;16.60;;
22939;SDS011;11636;52.086;5.090;2023-01-26T08:41:39;51.58;;;17.83;;
22939;SDS011;11636;52.086;5.090;2023-01-26T08:44:08;50.60;;;17.40;;
22939;SDS011;11636;52.086;5.090;2023-01-26T08:46:42;48.83;;;17.23;;
22939;SDS011;11636;52.086;5.090;2023-01-26T08:49:09;47.80;;;16.30;;
22939;SDS011;11636;52.086;5.090;2023-01-26T08:51:36;43.47;;;15.00;;
22939;SDS011;11636;52.086;5.090;2023-01-26T08:54:10;41.85;;;14.20;;
22939;SDS011;11636;52.086;5.090;2023-01-26T08:56:37;36.78;;;12.18;;
22939;SDS011;11636;52.086;5.090;2023-01-26T08:59:10;26.92;;;11.13;;
22939;SDS011;11636;52.086;5.090;2023-01-26T09:01:37;23.83;;;10.52;;
22939;SDS011;11636;52.086;5.090;2023-01-26T09:04:04;39.88;;;11.80;;
22939;SDS011;11636;52.086;5.090;2023-01-26T09:06:37;36.78;;;9.52;;
22939;SDS011;11636;52.086;5.090;2023-01-26T09:09:10;40.08;;;10.05;;
22939;SDS011;11636;52.086;5.090;2023-01-26T09:11:39;22.05;;;7.38;;
22939;SDS011;11636;52.086;5.090;2023-01-26T09:14:06;25.23;;;7.30;;
22939;SDS011;11636;52.086;5.090;2023-01-26T09:16:39;33.00;;;7.10;;
22939;SDS011;11636;52.086;5.090;2023-01-26T09:19:06;19.33;;;4.90;;
22939;SDS011;11636;52.086;5.090;2023-01-26T09:21:33;24.25;;;4.82;;
22939;SDS011;11636;52.086;5.090;2023-01-26T09:24:07;23.85;;;4.68;;
22939;SDS011;11636;52.086;5.090;2023-01-26T09:26:34;19.25;;;3.70;;
22939;SDS011;11636;52.086;5.090;2023-01-26T09:29:00;35.35;;;4.45;;
22939;SDS011;11636;52.086;5.090;2023-01-26T09:31:34;35.67;;;4.85;;
22939;SDS011;11636;52.086;5.090;2023-01-26T09:34:01;21.50;;;3.72;;
22939;SDS011;11636;52.086;5.090;2023-01-26T09:36:28;21.63;;;3.45;;
22939;SDS011;11636;52.086;5.090;2023-01-26T09:39:01;20.20;;;3.15;;
22939;SDS011;11636;52.086;5.090;2023-01-26T09:44:22;19.42;;;2.92;;
22939;SDS011;11636;52.086;5.090;2023-01-26T09:47:04;27.23;;;3.58;;
22939;SDS011;11636;52.086;5.090;2023-01-26T09:52:33;34.47;;;4.40;;
22939;SDS011;11636;52.086;5.090;2023-01-26T09:55:13;37.80;;;4.72;;
22939;SDS011;11636;52.086;5.090;2023-01-26T09:57:58;29.33;;;4.32;;
22939;SDS011;11636;52.086;5.090;2023-01-26T10:00:39;25.98;;;3.85;;
22939;SDS011;11636;52.086;5.090;2023-01-26T10:03:29;26.90;;;4.07;;
22939;SDS011;11636;52.086;5.090;2023-01-26T10:06:25;16.90;;;3.80;;
22939;SDS011;11636;52.086;5.090;2023-01-26T10:08:55;23.45;;;3.67;;
22939;SDS011;11636;52.086;5.090;2023-01-26T10:11:35;19.10;;;3.53;;
22939;SDS011;11636;52.086;5.090;2023-01-26T10:16:48;17.40;;;3.47;;
22939;SDS011;11636;52.086;5.090;2023-01-26T10:19:22;16.73;;;2.63;;
22939;SDS011;11636;52.086;5.090;2023-01-26T10:22:04;14.50;;;2.60;;
22939;SDS011;11636;52.086;5.090;2023-01-26T10:24:45;26.70;;;3.90;;
22939;SDS011;11636;52.086;5.090;2023-01-26T10:27:14;17.83;;;3.38;;
22939;SDS011;11636;52.086;5.090;2023-01-26T10:29:41;20.67;;;3.40;;
22939;SDS011;11636;52.086;5.090;2023-01-26T10:32:18;16.30;;;3.33;;
22939;SDS011;11636;52.086;5.090;2023-01-26T10:34:45;25.38;;;4.30;;
22939;SDS011;11636;52.086;5.090;2023-01-26T10:37:22;30.92;;;4.68;;
22939;SDS011;11636;52.086;5.090;2023-01-26T10:40:01;28.17;;;4.10;;
22939;SDS011;11636;52.086;5.090;2023-01-26T10:42:37;20.75;;;3.33;;
22939;SDS011;11636;52.086;5.090;2023-01-26T10:48:03;21.13;;;3.53;;
22939;SDS011;11636;52.086;5.090;2023-01-26T10:50:31;25.17;;;4.10;;
22939;SDS011;11636;52.086;5.090;2023-01-26T10:55:32;33.75;;;4.95;;
22939;SDS011;11636;52.086;5.090;2023-01-26T10:58:01;22.75;;;4.00;;
22939;SDS011;11636;52.086;5.090;2023-01-26T11:00:34;43.72;;;5.95;;
22939;SDS011;11636;52.086;5.090;2023-01-26T11:03:05;25.63;;;4.25;;
22939;SDS011;11636;52.086;5.090;2023-01-26T11:06:04;28.63;;;5.38;;
22939;SDS011;11636;52.086;5.090;2023-01-26T11:08:39;29.25;;;5.68;;
22939;SDS011;11636;52.086;5.090;2023-01-26T11:11:06;33.53;;;6.25;;
22939;SDS011;11636;52.086;5.090;2023-01-26T11:14:19;30.15;;;5.13;;
22939;SDS011;11636;52.086;5.090;2023-01-26T11:16:49;21.88;;;4.45;;
22939;SDS011;11636;52.086;5.090;2023-01-26T11:25:14;17.98;;;3.00;;
22939;SDS011;11636;52.086;5.090;2023-01-26T11:28:20;20.80;;;3.58;;
22939;SDS011;11636;52.086;5.090;2023-01-26T11:31:16;20.85;;;2.92;;
22939;SDS011;11636;52.086;5.090;2023-01-26T11:48:50;18.98;;;2.75;;
22939;SDS011;11636;52.086;5.090;2023-01-26T11:57:30;16.27;;;2.72;;
22939;SDS011;11636;52.086;5.090;2023-01-26T12:00:24;17.33;;;2.90;;
22939;SDS011;11636;52.086;5.090;2023-01-26T12:03:22;29.42;;;3.72;;
22939;SDS011;11636;52.086;5.090;2023-01-26T12:06:01;20.50;;;2.80;;
22939;SDS011;11636;52.086;5.090;2023-01-26T12:08:59;18.20;;;3.22;;
22939;SDS011;11636;52.086;5.090;2023-01-26T12:11:32;16.83;;;2.78;;
22939;SDS011;11636;52.086;5.090;2023-01-26T12:14:15;19.10;;;2.50;;
22939;SDS011;11636;52.086;5.090;2023-01-26T12:16:57;23.83;;;4.00;;
22939;SDS011;11636;52.086;5.090;2023-01-26T12:22:54;23.38;;;3.25;;
22939;SDS011;11636;52.086;5.090;2023-01-26T12:25:48;16.77;;;3.10;;
22939;SDS011;11636;52.086;5.090;2023-01-26T12:28:36;25.48;;;3.00;;
22939;SDS011;11636;52.086;5.090;2023-01-26T12:31:52;19.83;;;2.92;;
22939;SDS011;11636;52.086;5.090;2023-01-26T12:34:34;25.60;;;3.22;;
22939;SDS011;11636;52.086;5.090;2023-01-26T12:37:20;18.83;;;2.97;;
22939;SDS011;11636;52.086;5.090;2023-01-26T12:39:51;27.33;;;3.35;;
22939;SDS011;11636;52.086;5.090;2023-01-26T12:42:48;15.77;;;3.05;;
22939;SDS011;11636;52.086;5.090;2023-01-26T12:45:24;17.02;;;2.67;;
22939;SDS011;11636;52.086;5.090;2023-01-26T12:48:19;23.58;;;3.55;;
22939;SDS011;11636;52.086;5.090;2023-01-26T12:51:01;21.45;;;3.05;;
22939;SDS011;11636;52.086;5.090;2023-01-26T12:53:41;20.83;;;3.28;;
22939;SDS011;11636;52.086;5.090;2023-01-26T12:59:18;13.48;;;2.42;;
22939;SDS011;11636;52.086;5.090;2023-01-26T13:05:03;12.88;;;2.42;;
22939;SDS011;11636;52.086;5.090;2023-01-26T13:07:38;11.32;;;1.70;;
22939;SDS011;11636;52.086;5.090;2023-01-26T13:12:57;14.55;;;2.33;;
22939;SDS011;11636;52.086;5.090;2023-01-26T13:16:09;23.67;;;3.05;;
22939;SDS011;11636;52.086;5.090;2023-01-26T13:18:50;12.65;;;2.40;;
22939;SDS011;11636;52.086;5.090;2023-01-26T13:31:55;17.47;;;2.53;;
22939;SDS011;11636;52.086;5.090;2023-01-26T13:34:45;16.20;;;2.42;;
22939;SDS011;11636;52.086;5.090;2023-01-26T13:40:00;13.77;;;2.03;;
22939;SDS011;11636;52.086;5.090;2023-01-26T13:42:34;15.98;;;2.28;;
22939;SDS011;11636;52.086;5.090;2023-01-26T13:45:16;18.88;;;2.22;;
22939;SDS011;11636;52.086;5.090;2023-01-26T13:47:51;17.67;;;2.45;;
22939;SDS011;11636;52.086;5.090;2023-01-26T13:50:29;14.27;;;2.17;;
22939;SDS011;11636;52.086;5.090;2023-01-26T13:52:58;15.63;;;2.70;;
22939;SDS011;11636;52.086;5.090;2023-01-26T13:55:29;13.15;;;1.95;;
22939;SDS011;11636;52.086;5.090;2023-01-26T14:00:42;14.65;;;2.28;;
22939;SDS011;11636;52.086;5.090;2023-01-26T14:03:29;10.85;;;1.85;;
22939;SDS011;11636;52.086;5.090;2023-01-26T14:05:57;12.05;;;1.52;;
22939;SDS011;11636;52.086;5.090;2023-01-26T14:08:46;11.13;;;1.48;;
22939;SDS011;11636;52.086;5.090;2023-01-26T14:11:22;15.43;;;1.95;;
22939;SDS011;11636;52.086;5.090;2023-01-26T14:13:53;15.75;;;2.40;;
22939;SDS011;11636;52.086;5.090;2023-01-26T14:16:35;13.13;;;1.80;;
22939;SDS011;11636;52.086;5.090;2023-01-26T14:19:11;12.95;;;2.10;;
22939;SDS011;11636;52.086;5.090;2023-01-26T14:24:32;17.45;;;2.58;;
22939;SDS011;11636;52.086;5.090;2023-01-26T14:27:22;13.57;;;1.95;;
22939;SDS011;11636;52.086;5.090;2023-01-26T14:29:58;19.23;;;2.35;;
22939;SDS011;11636;52.086;5.090;2023-01-26T14:32:32;16.42;;;2.20;;
22939;SDS011;11636;52.086;5.090;2023-01-26T14:35:15;21.20;;;2.83;;
22939;SDS011;11636;52.086;5.090;2023-01-26T14:40:50;15.60;;;1.98;;
22939;SDS011;11636;52.086;5.090;2023-01-26T14:43:26;13.13;;;2.25;;
22939;SDS011;11636;52.086;5.090;2023-01-26T14:45:54;15.88;;;1.95;;
22939;SDS011;11636;52.086;5.090;2023-01-26T14:48:41;9.88;;;1.77;;
22939;SDS011;11636;52.086;5.090;2023-01-26T14:51:17;17.40;;;2.90;;
22939;SDS011;11636;52.086;5.090;2023-01-26T14:53:54;14.88;;;2.13;;
22939;SDS011;11636;52.086;5.090;2023-01-26T14:56:30;12.85;;;2.08;;
22939;SDS011;11636;52.086;5.090;2023-01-26T14:59:16;13.32;;;1.80;;
22939;SDS011;11636;52.086;5.090;2023-01-26T15:02:00;16.25;;;2.00;;
22939;SDS011;11636;52.086;5.090;2023-01-26T15:04:59;12.02;;;1.77;;
22939;SDS011;11636;52.086;5.090;2023-01-26T15:07:43;20.70;;;1.95;;
22939;SDS011;11636;52.086;5.090;2023-01-26T15:10:36;12.20;;;1.98;;
22939;SDS011;11636;52.086;5.090;2023-01-26T15:15:36;13.88;;;2.00;;
22939;SDS011;11636;52.086;5.090;2023-01-26T15:23:24;10.73;;;1.77;;
22939;SDS011;11636;52.086;5.090;2023-01-26T15:26:04;15.35;;;2.35;;
22939;SDS011;11636;52.086;5.090;2023-01-26T15:28:39;12.23;;;1.83;;
22939;SDS011;11636;52.086;5.090;2023-01-26T15:31:06;10.73;;;1.50;;
22939;SDS011;11636;52.086;5.090;2023-01-26T15:33:52;13.80;;;4.65;;
22939;SDS011;11636;52.086;5.090;2023-01-26T15:39:22;16.00;;;3.83;;
22939;SDS011;11636;52.086;5.090;2023-01-26T15:44:46;9.55;;;1.60;;
22939;SDS011;11636;52.086;5.090;2023-01-26T15:47:13;14.02;;;1.83;;
22939;SDS011;11636;52.086;5.090;2023-01-26T15:49:40;16.80;;;2.60;;
22939;SDS011;11636;52.086;5.090;2023-01-26T15:52:14;12.68;;;1.63;;
22939;SDS011;11636;52.086;5.090;2023-01-26T15:54:55;9.52;;;2.13;;
22939;SDS011;11636;52.086;5.090;2023-01-26T15:57:25;13.52;;;2.10;;
22939;SDS011;11636;52.086;5.090;2023-01-26T15:59:52;16.85;;;2.05;;
22939;SDS011;11636;52.086;5.090;2023-01-26T16:02:27;8.52;;;1.60;;
22939;SDS011;11636;52.086;5.090;2023-01-26T16:04:55;11.20;;;1.80;;
22939;SDS011;11636;52.086;5.090;2023-01-26T16:07:28;13.73;;;2.38;;
22939;SDS011;11636;52.086;5.090;2023-01-26T16:10:01;12.13;;;2.13;;
22939;SDS011;11636;52.086;5.090;2023-01-26T16:12:29;11.38;;;1.60;;
22939;SDS011;11636;52.086;5.090;2023-01-26T16:14:57;9.43;;;1.58;;
22939;SDS011;11636;52.086;5.090;2023-01-26T16:17:31;11.45;;;1.98;;
22939;SDS011;11636;52.086;5.090;2023-01-26T16:19:58;12.18;;;1.88;;
22939;SDS011;11636;52.086;5.090;2023-01-26T16:22:26;10.85;;;1.50;;
22939;SDS011;11636;52.086;5.090;2023-01-26T16:25:00;10.48;;;2.17;;
22939;SDS011;11636;52.086;5.090;2023-01-26T16:27:32;9.43;;;1.77;;
22939;SDS011;11636;52.086;5.090;2023-01-26T16:29:59;10.48;;;1.60;;
22939;SDS011;11636;52.086;5.090;2023-01-26T16:32:33;12.90;;;1.77;;
22939;SDS011;11636;52.086;5.090;2023-01-26T16:35:00;13.73;;;1.73;;
22939;SDS011;11636;52.086;5.090;2023-01-26T16:37:27;11.13;;;1.63;;
22939;SDS011;11636;52.086;5.090;2023-01-26T16:40:00;10.55;;;1.75;;
22939;SDS011;11636;52.086;5.090;2023-01-26T16:42:27;9.98;;;1.70;;
22939;SDS011;11636;52.086;5.090;2023-01-26T16:44:54;10.45;;;1.48;;
22939;SDS011;11636;52.086;5.090;2023-01-26T16:47:27;9.93;;;1.95;;